Time;durP1;ratioP1;P1;durP2;ratioP2;P2;SDS_P1;SDS_P2;PMS_P1;PMS_P2;Temp;Humidity;BMP_temperature;BMP_pressure;BME280_temperature;BME280_humidity;BME280_pressure;Samples;Min_cycle;Max_cycle;Signal;HPM_P1;HPM_P2
2021/07/29 00:01:04;;;;;;;18.43;11.97;;;;;;;24.65;100.00;100029.09;1712870;83;21464;-63
2021/07/29 00:03:33;;;;;;;18.07;11.67;;;;;;;24.62;100.00;100030.44;1714254;82;22281;-63
2021/07/29 00:06:00;;;;;;;15.23;11.30;;;;;;;24.61;100.00;100035.52;1711105;83;21515;-62
2021/07/29 00:08:27;;;;;;;16.40;10.20;;;;;;;24.67;100.00;100033.61;1713503;82;20974;-63
2021/07/29 00:10:53;;;;;;;14.03;10.07;;;;;;;24.69;100.00;100035.44;1712755;82;20851;-63
2021/07/29 00:13:21;;;;;;;18.53;10.13;;;;;;;24.69;100.00;100030.90;1714257;82;21100;-63
2021/07/29 00:15:49;;;;;;;14.97;10.53;;;;;;;24.60;100.00;100033.14;1713853;82;20944;-63
2021/07/29 00:20:42;;;;;;;14.73;10.77;;;;;;;24.64;100.00;100019.51;1713604;82;21066;-64
2021/07/29 00:23:09;;;;;;;15.50;10.03;;;;;;;24.61;100.00;100023.52;1712598;83;20965;-62
2021/07/29 00:25:35;;;;;;;13.97;9.87;;;;;;;24.53;100.00;100012.15;1716837;82;21136;-64
2021/07/29 00:28:02;;;;;;;11.03;8.90;;;;;;;24.49;100.00;100013.78;1712998;82;21112;-64
2021/07/29 00:30:29;;;;;;;21.17;10.13;;;;;;;24.50;100.00;100013.50;1712967;82;22113;-64
2021/07/29 00:32:56;;;;;;;17.20;9.90;;;;;;;24.42;100.00;100015.44;1717282;82;20954;-64
2021/07/29 00:35:22;;;;;;;14.77;9.73;;;;;;;24.36;100.00;100011.73;1711716;83;21016;-64
2021/07/29 00:37:53;;;;;;;16.80;10.00;;;;;;;24.25;100.00;100015.84;1714967;82;21657;-62
2021/07/29 00:40:20;;;;;;;18.43;10.30;;;;;;;24.15;100.00;100009.80;1713761;82;21123;-63
2021/07/29 00:42:46;;;;;;;13.13;9.53;;;;;;;23.99;100.00;100003.27;1714771;82;21164;-64
2021/07/29 00:45:13;;;;;;;15.93;9.30;;;;;;;24.00;100.00;100004.05;1710551;82;20973;-63
2021/07/29 00:47:42;;;;;;;19.53;11.03;;;;;;;23.98;100.00;99996.87;1712007;82;21064;-64
2021/07/29 00:50:13;;;;;;;15.00;9.93;;;;;;;23.91;100.00;100005.19;1712402;82;21095;-64
2021/07/29 00:52:39;;;;;;;14.35;10.25;;;;;;;23.90;100.00;99998.80;1714006;82;21601;-64
2021/07/29 00:55:07;;;;;;;14.90;9.37;;;;;;;23.82;100.00;100001.52;1712915;83;21107;-62
2021/07/29 00:57:34;;;;;;;15.63;9.70;;;;;;;23.68;100.00;100003.23;1714202;82;20926;-64
2021/07/29 01:00:01;;;;;;;12.80;9.40;;;;;;;23.66;100.00;100002.16;1713652;82;21547;-63
2021/07/29 01:02:28;;;;;;;14.50;9.77;;;;;;;23.57;100.00;100001.67;1713671;82;21614;-64
2021/07/29 01:04:55;;;;;;;16.83;10.17;;;;;;;23.55;100.00;99997.94;1713701;82;20977;-64
2021/07/29 01:07:22;;;;;;;13.97;9.30;;;;;;;23.60;100.00;99997.11;1712088;82;21156;-64
2021/07/29 01:09:48;;;;;;;16.10;10.43;;;;;;;23.62;100.00;99994.44;1713445;82;20993;-63
2021/07/29 01:12:15;;;;;;;13.73;9.53;;;;;;;23.61;100.00;100005.37;1713195;82;20926;-63
2021/07/29 01:14:45;;;;;;;14.90;9.17;;;;;;;23.63;100.00;99993.89;1714963;82;21700;-64
2021/07/29 01:17:12;;;;;;;11.30;8.50;;;;;;;23.60;100.00;99997.11;1713052;82;20989;-63
2021/07/29 01:19:38;;;;;;;12.83;8.60;;;;;;;23.64;100.00;99995.48;1713676;82;21147;-64
2021/07/29 01:22:05;;;;;;;11.97;7.83;;;;;;;23.62;100.00;100000.30;1713176;82;21523;-62
2021/07/29 01:24:32;;;;;;;10.87;8.77;;;;;;;23.65;100.00;99998.42;1715334;82;21008;-64
2021/07/29 01:26:58;;;;;;;12.87;8.23;;;;;;;23.67;100.00;99999.75;1713170;83;21496;-64
2021/07/29 01:29:25;;;;;;;11.83;7.77;;;;;;;23.68;100.00;99997.91;1713242;82;21524;-63
2021/07/29 01:31:52;;;;;;;12.50;8.37;;;;;;;23.70;100.00;99998.41;1711524;83;21141;-63
2021/07/29 01:34:20;;;;;;;11.83;7.57;;;;;;;23.72;100.00;99997.61;1713610;82;21518;-62
2021/07/29 01:36:47;;;;;;;9.80;6.90;;;;;;;23.76;100.00;99994.66;1713564;82;21096;-63
2021/07/29 01:39:14;;;;;;;11.13;7.47;;;;;;;23.81;100.00;99993.82;1712537;82;21021;-61
2021/07/29 01:41:42;;;;;;;14.23;7.40;;;;;;;23.85;100.00;99990.32;1713435;82;21038;-63
2021/07/29 01:44:08;;;;;;;11.77;7.20;;;;;;;23.79;100.00;99994.90;1716141;82;21169;-63
2021/07/29 01:46:35;;;;;;;13.23;7.60;;;;;;;23.79;100.00;99994.11;1711859;82;20926;-63
2021/07/29 01:49:02;;;;;;;10.60;7.27;;;;;;;23.78;100.00;99991.95;1712626;82;21114;-63
2021/07/29 01:51:29;;;;;;;9.83;6.83;;;;;;;23.84;100.00;99990.61;1715941;82;21078;-62
2021/07/29 01:53:56;;;;;;;12.20;6.87;;;;;;;23.89;100.00;99990.02;1712859;82;21009;-62
2021/07/29 01:56:22;;;;;;;13.03;6.50;;;;;;;23.91;100.00;99992.42;1713578;82;21166;-63
2021/07/29 01:58:49;;;;;;;11.67;6.70;;;;;;;23.87;100.00;99988.19;1713843;82;20875;-63
2021/07/29 02:01:21;;;;;;;11.23;6.53;;;;;;;23.92;100.00;99993.47;1713043;82;21037;-63
2021/07/29 02:03:49;;;;;;;11.60;6.03;;;;;;;23.96;100.00;99985.17;1710529;83;20980;-63
2021/07/29 02:06:16;;;;;;;11.70;7.07;;;;;;;23.86;100.00;99989.78;1726953;81;21098;-63
2021/07/29 02:08:44;;;;;;;8.93;6.70;;;;;;;23.83;100.00;99981.83;1726121;81;20906;-63
2021/07/29 02:11:12;;;;;;;9.67;6.53;;;;;;;23.79;100.00;99980.80;1726542;81;21565;-63
2021/07/29 02:13:40;;;;;;;14.10;6.50;;;;;;;23.84;100.00;99982.62;1725926;83;21131;-63
2021/07/29 02:16:12;;;;;;;12.00;6.27;;;;;;;23.75;100.00;99979.73;1725091;81;21127;-63
2021/07/29 02:18:40;;;;;;;10.37;6.37;;;;;;;23.83;100.00;99980.50;1725103;81;21395;-63
2021/07/29 02:21:10;;;;;;;8.70;5.87;;;;;;;23.80;100.00;99986.37;1726290;81;21339;-62
2021/07/29 02:23:37;;;;;;;11.57;6.37;;;;;;;23.95;100.00;99990.80;1725763;83;20984;-63
2021/07/29 02:26:03;;;;;;;10.43;6.20;;;;;;;23.90;100.00;99989.48;1726778;81;20988;-63
2021/07/29 02:28:30;;;;;;;11.70;6.67;;;;;;;23.98;100.00;99987.04;1725377;83;21498;-63
2021/07/29 02:30:58;;;;;;;11.30;6.70;;;;;;;24.02;100.00;99991.27;1728274;81;21097;-63
2021/07/29 02:33:24;;;;;;;17.27;6.47;;;;;;;24.03;100.00;99997.64;1727124;81;21172;-61
2021/07/29 02:35:51;;;;;;;11.30;6.20;;;;;;;24.02;100.00;99994.73;1726230;81;20978;-62
2021/07/29 02:38:18;;;;;;;9.83;5.93;;;;;;;24.04;100.00;100000.55;1722886;83;20993;-61
2021/07/29 02:40:45;;;;;;;14.17;6.53;;;;;;;24.02;100.00;100003.25;1726038;83;21436;-63
2021/07/29 02:43:11;;;;;;;9.40;5.83;;;;;;;24.13;100.00;100005.27;1730414;81;21063;-62
2021/07/29 02:45:38;;;;;;;10.40;5.83;;;;;;;24.17;100.00;100000.47;1725095;81;21108;-62
2021/07/29 02:48:06;;;;;;;9.50;6.23;;;;;;;24.04;100.00;99996.55;1725911;83;21028;-63
2021/07/29 02:50:33;;;;;;;11.03;6.47;;;;;;;24.22;100.00;100001.75;1722146;81;21082;-62
2021/07/29 02:53:00;;;;;;;9.50;6.20;;;;;;;24.18;100.00;99998.59;1728391;81;21057;-62
2021/07/29 02:55:27;;;;;;;10.57;6.37;;;;;;;24.22;100.00;100000.95;1727568;81;21016;-62
2021/07/29 02:57:53;;;;;;;11.50;6.60;;;;;;;24.01;100.00;100009.09;1724891;81;21942;-62
2021/07/29 03:00:20;;;;;;;13.80;6.47;;;;;;;23.92;100.00;100005.98;1720826;80;21083;-61
2021/07/29 03:02:47;;;;;;;11.93;6.20;;;;;;;23.91;100.00;100006.52;1655145;85;21060;-63
2021/07/29 03:05:14;;;;;;;12.13;7.13;;;;;;;24.02;100.00;100012.58;1653106;85;21065;-62
2021/07/29 03:07:41;;;;;;;35.33;21.67;;;;;;;24.07;100.00;100010.41;1653429;86;20932;-62
2021/07/29 03:10:13;;;;;;;30.07;19.97;;;;;;;24.17;100.00;100012.45;1652307;85;21047;-62
2021/07/29 03:12:41;;;;;;;27.30;18.07;;;;;;;24.29;100.00;100008.09;1651379;86;21038;-63
2021/07/29 03:15:09;;;;;;;26.20;17.83;;;;;;;24.41;100.00;100004.53;1653078;86;21110;-63
2021/07/29 03:17:36;;;;;;;29.87;17.57;;;;;;;24.50;100.00;100005.50;1653743;85;21028;-63
2021/07/29 03:20:04;;;;;;;28.90;18.53;;;;;;;24.57;100.00;100008.38;1653022;85;21078;-63
2021/07/29 03:22:31;;;;;;;32.43;23.57;;;;;;;24.66;100.00;100012.01;1653252;85;22528;-63
2021/07/29 03:24:58;;;;;;;39.13;23.93;;;;;;;24.73;100.00;100015.93;1652801;86;21059;-62
2021/07/29 03:27:24;;;;;;;44.00;27.50;;;;;;;24.93;100.00;100014.14;1658382;85;21038;-63
2021/07/29 03:29:51;;;;;;;42.17;24.87;;;;;;;25.13;100.00;100013.13;1658849;85;21031;-61
2021/07/29 03:32:17;;;;;;;28.43;17.73;;;;;;;25.42;100.00;100015.67;1657752;85;21026;-62
2021/07/29 03:34:46;;;;;;;25.17;15.43;;;;;;;25.58;100.00;100013.61;1657708;86;21208;-62
2021/07/29 03:37:12;;;;;;;21.30;12.67;;;;;;;25.68;100.00;100014.78;1657666;85;20975;-61
2021/07/29 03:39:38;;;;;;;29.13;15.10;;;;;;;25.71;100.00;100015.00;1658493;85;21548;-62
2021/07/29 03:42:06;;;;;;;27.00;16.93;;;;;;;25.77;100.00;100014.40;1656265;85;21039;-62
2021/07/29 03:44:33;;;;;;;23.73;13.83;;;;;;;25.88;100.00;100015.08;1657701;85;21178;-62
2021/07/29 03:46:59;;;;;;;25.70;12.77;;;;;;;26.00;100.00;100011.41;1658291;85;21134;-62
2021/07/29 03:49:26;;;;;;;19.73;11.97;;;;;;;26.17;100.00;100009.52;1657249;86;21652;-63
2021/07/29 03:51:52;;;;;;;20.57;11.37;;;;;;;26.33;100.00;100001.52;1658738;85;21036;-63
2021/07/29 03:54:19;;;;;;;17.00;10.10;;;;;;;26.62;100.00;99997.80;1656915;86;21672;-62
2021/07/29 03:56:45;;;;;;;14.43;7.93;;;;;;;27.33;100.00;100001.75;1658478;85;20975;-63
2021/07/29 03:59:12;;;;;;;21.50;9.27;;;;;;;28.04;100.00;100001.24;1658227;85;21112;-64
2021/07/29 04:01:38;;;;;;;11.83;8.67;;;;;;;28.65;100.00;100001.58;1659854;84;21332;-62
2021/07/29 04:04:05;;;;;;;30.25;10.03;;;;;;;29.34;100.00;100007.92;1665327;84;21070;-63
2021/07/29 04:06:32;;;;;;;15.35;8.23;;;;;;;30.11;100.00;100006.87;1664103;84;21058;-63
2021/07/29 04:09:00;;;;;;;13.18;7.78;;;;;;;30.58;99.83;99996.16;1669512;84;21038;-62
2021/07/29 04:11:26;;;;;;;11.63;7.00;;;;;;;30.90;92.64;100000.70;1666702;84;21436;-61
2021/07/29 04:13:53;;;;;;;10.65;7.65;;;;;;;30.89;88.93;99997.78;1663931;84;20967;-61
2021/07/29 04:16:21;;;;;;;11.70;8.35;;;;;;;31.06;85.62;100001.70;1664225;84;20972;-61
2021/07/29 04:18:49;;;;;;;15.03;9.95;;;;;;;31.07;83.28;99997.12;1663929;84;20991;-63
2021/07/29 04:21:16;;;;;;;15.65;9.35;;;;;;;30.83;83.59;99995.82;1668656;84;21197;-65
2021/07/29 04:23:43;;;;;;;13.78;8.73;;;;;;;30.76;85.89;99995.00;1663347;84;21801;-63
2021/07/29 04:26:10;;;;;;;14.30;8.28;;;;;;;30.66;87.84;99995.34;1665118;84;21050;-62
2021/07/29 04:28:36;;;;;;;11.30;8.23;;;;;;;30.52;90.19;99999.58;1664478;84;21059;-62
2021/07/29 04:31:03;;;;;;;12.10;7.80;;;;;;;30.35;91.80;99990.80;1661834;84;21619;-62
2021/07/29 04:33:29;;;;;;;11.53;7.67;;;;;;;30.09;95.43;99998.91;1662331;84;21109;-62
2021/07/29 04:35:57;;;;;;;14.20;7.37;;;;;;;30.09;97.86;99997.01;1666572;84;20915;-62
2021/07/29 04:38:24;;;;;;;13.50;7.83;;;;;;;30.57;95.21;99991.88;1664102;84;21002;-62
2021/07/29 04:41:05;;;;;;;13.13;7.67;;;;;;;30.98;89.68;99990.44;1664375;84;21031;-63
2021/07/29 04:43:31;;;;;;;10.78;7.60;;;;;;;31.01;86.58;99985.75;1665366;84;21750;-62
2021/07/29 04:46:04;;;;;;;21.62;8.08;;;;;;;31.27;87.32;99990.96;1664929;84;20987;-63
2021/07/29 04:48:32;;;;;;;14.38;9.43;;;;;;;31.44;85.59;99997.61;1662706;84;21148;-63
2021/07/29 04:51:04;;;;;;;15.23;8.55;;;;;;;31.36;87.98;99999.00;1663877;84;20943;-63
2021/07/29 04:53:32;;;;;;;15.05;8.00;;;;;;;31.53;85.62;99993.48;1668235;84;21027;-62
2021/07/29 04:56:04;;;;;;;10.63;8.00;;;;;;;32.12;79.24;99985.16;1663752;84;21799;-63
2021/07/29 04:58:30;;;;;;;11.85;8.23;;;;;;;32.42;73.79;99985.79;1664428;84;21059;-61
2021/07/29 05:01:04;;;;;;;13.28;7.47;;;;;;;32.43;70.99;99985.25;1662433;84;21142;-63
2021/07/29 05:03:31;;;;;;;14.63;8.60;;;;;;;32.41;70.62;99982.09;1645981;84;21085;-62
2021/07/29 05:06:00;;;;;;;16.02;7.95;;;;;;;32.27;72.50;99980.24;1670832;84;20939;-63
2021/07/29 05:08:27;;;;;;;13.85;7.28;;;;;;;32.12;76.39;99987.84;1672240;84;21125;-63
2021/07/29 05:10:54;;;;;;;16.40;9.08;;;;;;;32.50;74.84;99979.27;1671809;84;21029;-62
2021/07/29 05:13:20;;;;;;;13.18;9.63;;;;;;;32.73;70.66;99979.61;1671476;84;21204;-62
2021/07/29 05:15:47;;;;;;;13.45;8.88;;;;;;;33.11;67.08;99980.59;1671271;84;21081;-63
2021/07/29 05:18:13;;;;;;;14.80;9.30;;;;;;;33.83;62.22;99981.50;1669400;84;21082;-63
2021/07/29 05:20:40;;;;;;;16.15;8.60;;;;;;;34.67;56.10;99977.81;1668662;84;21015;-62
2021/07/29 05:23:06;;;;;;;12.70;8.35;;;;;;;35.39;51.53;99982.07;1670611;84;22515;-63
2021/07/29 05:25:36;;;;;;;12.95;7.50;;;;;;;36.08;47.93;99982.23;1673150;84;21170;-62
2021/07/29 05:28:03;;;;;;;13.62;7.15;;;;;;;36.60;45.64;99983.48;1671889;84;21062;-62
2021/07/29 05:30:29;;;;;;;11.93;6.62;;;;;;;37.31;43.57;99983.66;1670299;84;21034;-62
2021/07/29 05:32:58;;;;;;;10.25;6.92;;;;;;;37.90;40.13;99982.02;1672462;84;21550;-64
2021/07/29 05:35:25;;;;;;;10.28;6.75;;;;;;;38.24;38.98;99975.11;1670175;84;21105;-62
2021/07/29 05:37:51;;;;;;;14.47;7.20;;;;;;;38.43;38.02;99982.47;1672662;84;22592;-63
2021/07/29 05:40:18;;;;;;;10.63;6.95;;;;;;;38.57;37.86;99974.98;1673192;84;21096;-63
2021/07/29 05:42:45;;;;;;;12.30;6.83;;;;;;;38.80;37.24;99977.48;1669047;84;21042;-62
2021/07/29 05:45:13;;;;;;;8.35;6.25;;;;;;;39.19;36.50;99970.06;1673049;84;22463;-63
2021/07/29 05:47:55;;;;;;;9.48;6.45;;;;;;;39.64;35.91;99974.11;1670307;84;21493;-63
2021/07/29 05:50:21;;;;;;;13.58;7.35;;;;;;;40.12;34.54;99973.02;1704916;82;21067;-62
2021/07/29 05:52:48;;;;;;;13.08;7.42;;;;;;;40.36;33.82;99961.31;1683169;84;21397;-63
2021/07/29 05:55:15;;;;;;;11.03;7.50;;;;;;;40.69;33.00;99957.96;1696054;82;22534;-62
2021/07/29 05:57:42;;;;;;;9.23;6.87;;;;;;;40.98;32.70;99959.20;1698192;82;21077;-63
2021/07/29 06:00:11;;;;;;;9.73;7.40;;;;;;;41.39;31.90;99955.91;1697659;83;21010;-62
2021/07/29 06:02:38;;;;;;;12.15;6.78;;;;;;;41.54;31.18;99957.41;1697495;82;21111;-62
2021/07/29 06:05:06;;;;;;;10.03;7.08;;;;;;;41.89;30.20;99963.23;1695925;83;21092;-63
2021/07/29 06:07:33;;;;;;;9.68;7.30;;;;;;;42.02;29.64;99958.84;1698435;83;21148;-62
2021/07/29 06:10:01;;;;;;;9.75;7.55;;;;;;;41.99;29.38;99960.23;1683070;83;20922;-62
2021/07/29 06:12:29;;;;;;;10.43;7.40;;;;;;;42.08;28.88;99962.50;1668019;83;21694;-62
2021/07/29 06:14:55;;;;;;;11.25;6.97;;;;;;;41.94;29.11;99963.39;1693978;83;21123;-61
2021/07/29 06:17:27;;;;;;;14.00;6.90;;;;;;;41.72;28.78;99953.97;1683519;84;21033;-62
2021/07/29 06:19:52;;;;;;;13.88;7.20;;;;;;;41.61;28.83;99951.89;1694153;82;21424;-61
2021/07/29 06:22:19;;;;;;;9.08;7.08;;;;;;;41.70;28.95;99956.31;1695088;83;21432;-62
2021/07/29 06:24:45;;;;;;;9.45;6.90;;;;;;;41.87;28.99;99960.14;1694693;83;21020;-62
2021/07/29 06:27:12;;;;;;;12.95;7.95;;;;;;;41.91;28.54;99951.90;1694518;83;21092;-62
2021/07/29 06:29:39;;;;;;;8.85;6.83;;;;;;;41.82;28.48;99953.68;1698118;83;21392;-62
2021/07/29 06:32:07;;;;;;;14.50;7.50;;;;;;;41.62;28.64;99953.44;1681758;84;21476;-61
2021/07/29 06:34:36;;;;;;;9.38;7.22;;;;;;;41.78;28.61;99950.19;1695903;83;21123;-62
2021/07/29 06:37:03;;;;;;;8.80;6.90;;;;;;;41.97;28.66;99949.67;1696747;83;21524;-62
2021/07/29 06:39:30;;;;;;;9.73;6.95;;;;;;;42.26;28.21;99946.12;1684690;84;22371;-62
2021/07/29 06:41:59;;;;;;;8.48;6.28;;;;;;;42.40;27.73;99954.02;1667954;84;21001;-61
2021/07/29 06:44:26;;;;;;;8.75;6.35;;;;;;;42.43;27.37;99949.88;1696360;83;21374;-62
2021/07/29 06:46:52;;;;;;;13.00;6.97;;;;;;;42.44;26.55;99941.06;1699466;83;21586;-63
2021/07/29 06:49:19;;;;;;;10.30;6.12;;;;;;;42.36;26.73;99944.47;1696853;82;20967;-63
2021/07/29 06:51:45;;;;;;;10.32;5.97;;;;;;;42.16;27.24;99937.38;1701156;82;21950;-62
2021/07/29 06:54:12;;;;;;;7.92;5.95;;;;;;;42.19;27.17;99924.24;1702085;82;21558;-63
2021/07/29 06:56:38;;;;;;;8.80;5.53;;;;;;;42.17;26.45;99936.21;1699783;82;20947;-63
2021/07/29 06:59:05;;;;;;;8.43;5.30;;;;;;;42.03;26.53;99932.23;1700257;82;21063;-63
2021/07/29 07:01:34;;;;;;;8.45;5.67;;;;;;;42.00;27.02;99922.86;1699644;82;21204;-62
2021/07/29 07:04:02;;;;;;;7.67;5.87;;;;;;;41.95;26.57;99923.90;1702706;83;21105;-62
2021/07/29 07:06:28;;;;;;;7.92;5.42;;;;;;;41.90;27.05;99927.05;1700894;82;21073;-62
2021/07/29 07:08:58;;;;;;;6.58;5.17;;;;;;;41.88;26.77;99919.85;1700458;83;21015;-63
2021/07/29 07:11:24;;;;;;;;;;;;;;;41.88;26.87;99924.73;1679686;82;21527;-61
2021/07/29 07:13:51;;;;;;;9.63;6.05;;;;;;;41.73;26.92;99922.67;1699966;82;20158;-61
2021/07/29 07:16:18;;;;;;;9.65;5.83;;;;;;;41.75;26.34;99918.15;1699557;82;21123;-63
2021/07/29 07:18:45;;;;;;;10.43;6.05;;;;;;;41.61;26.66;99916.91;1702043;82;20987;-62
2021/07/29 07:21:12;;;;;;;11.60;5.87;;;;;;;41.43;26.75;99916.44;1703972;82;21022;-62
2021/07/29 07:23:40;;;;;;;12.15;5.37;;;;;;;41.23;26.27;99911.27;1699652;82;21027;-61
2021/07/29 07:26:19;;;;;;;8.48;5.20;;;;;;;41.03;26.96;99905.50;1700152;82;21132;-62
2021/07/29 07:28:48;;;;;;;10.40;4.67;;;;;;;41.00;25.63;99907.69;1668477;84;21156;-62
2021/07/29 07:31:16;;;;;;;12.37;5.37;;;;;;;40.97;25.79;99908.45;1661588;84;21076;-61
2021/07/29 07:33:43;;;;;;;12.23;5.87;;;;;;;41.06;25.51;99901.98;1694207;83;21027;-62
2021/07/29 07:36:09;;;;;;;8.58;4.83;;;;;;;41.10;25.54;99897.27;1691153;83;21086;-61
2021/07/29 07:38:37;;;;;;;8.83;4.92;;;;;;;40.98;25.90;99890.86;1696027;83;21094;-61
2021/07/29 07:41:06;;;;;;;6.95;4.33;;;;;;;40.77;26.21;99886.30;1689180;84;21067;-62
2021/07/29 07:43:33;;;;;;;5.08;4.10;;;;;;;40.54;26.53;99878.55;1688584;84;21046;-60
2021/07/29 07:46:02;;;;;;;6.75;3.72;;;;;;;40.42;26.07;99882.47;1689561;84;21917;-61
2021/07/29 07:48:28;;;;;;;6.37;3.33;;;;;;;40.58;25.90;99877.98;1686716;84;21846;-62
2021/07/29 07:50:55;;;;;;;6.25;3.47;;;;;;;40.64;25.20;99881.06;1684020;84;21517;-61
2021/07/29 07:53:25;;;;;;;5.20;3.65;;;;;;;40.60;24.64;99881.08;1684680;84;22086;-60
2021/07/29 07:55:53;;;;;;;8.25;3.67;;;;;;;40.43;24.74;99871.75;1684631;84;21460;-61
2021/07/29 07:58:20;;;;;;;7.00;3.70;;;;;;;40.47;25.05;99875.25;1687347;84;21096;-61
2021/07/29 08:00:46;;;;;;;7.22;4.00;;;;;;;40.64;25.39;99880.47;1688781;84;21089;-61
2021/07/29 08:03:13;;;;;;;5.22;3.52;;;;;;;40.79;25.45;99871.63;1686002;84;21523;-61
2021/07/29 08:05:40;;;;;;;6.45;3.50;;;;;;;41.01;25.75;99870.38;1691093;83;21155;-61
2021/07/29 08:08:08;;;;;;;6.55;3.22;;;;;;;41.23;24.98;99876.50;1692221;83;21073;-63
2021/07/29 08:10:36;;;;;;;5.20;2.83;;;;;;;41.40;24.20;99876.77;1695344;83;21068;-62
2021/07/29 08:13:06;;;;;;;5.97;3.05;;;;;;;41.42;23.29;99868.38;1696629;83;21081;-63
2021/07/29 08:15:36;;;;;;;5.15;3.12;;;;;;;41.38;23.15;99867.60;1689445;83;21002;-61
2021/07/29 08:18:03;;;;;;;5.92;2.60;;;;;;;41.18;23.20;99871.46;1683381;83;21078;-63
2021/07/29 08:20:29;;;;;;;4.33;2.83;;;;;;;40.95;23.20;99862.95;1692869;82;21356;-63
2021/07/29 08:22:56;;;;;;;6.33;2.72;;;;;;;40.83;23.51;99856.77;1694100;82;21081;-64
2021/07/29 08:25:23;;;;;;;7.45;2.90;;;;;;;40.70;23.74;99859.00;1691757;82;21086;-64
2021/07/29 08:27:52;;;;;;;4.47;3.17;;;;;;;40.64;23.89;99858.61;1688567;83;21461;-61
2021/07/29 08:30:20;;;;;;;7.35;3.00;;;;;;;40.73;24.56;99856.25;1688746;82;21117;-63
2021/07/29 08:32:46;;;;;;;5.55;2.62;;;;;;;40.99;23.65;99854.17;1689496;82;21496;-62
2021/07/29 08:35:14;;;;;;;8.73;2.50;;;;;;;41.00;23.60;99845.59;1688452;82;20958;-62
2021/07/29 08:37:49;;;;;;;6.78;2.77;;;;;;;40.81;23.60;99848.80;1688205;82;21046;-63
2021/07/29 08:40:13;;;;;;;;;;;;;;;40.54;23.88;99847.91;1693642;83;21509;-63
2021/07/29 08:42:40;;;;;;;6.30;3.05;;;;;;;40.48;24.47;99845.97;1685114;83;21091;-64
2021/07/29 08:45:09;;;;;;;5.92;2.85;;;;;;;40.43;24.58;99843.66;1657208;85;20922;-63
2021/07/29 08:47:35;;;;;;;7.03;3.20;;;;;;;40.43;24.76;99836.83;1677956;84;21011;-67
2021/07/29 08:50:07;;;;;;;7.25;3.37;;;;;;;40.55;24.39;99832.29;1678100;83;21318;-64
2021/07/29 08:52:34;;;;;;;9.38;3.72;;;;;;;40.49;24.57;99831.91;1700791;82;21110;-64
2021/07/29 08:55:01;;;;;;;9.15;3.65;;;;;;;40.38;24.88;99832.53;1701548;82;21331;-63
2021/07/29 08:57:30;;;;;;;7.00;3.00;;;;;;;40.42;25.02;99836.03;1701935;82;21000;-64
2021/07/29 08:59:59;;;;;;;7.08;3.45;;;;;;;40.45;24.87;99834.47;1699242;82;21168;-63
2021/07/29 09:02:26;;;;;;;6.03;3.25;;;;;;;40.41;25.07;99837.21;1700971;82;21100;-65
2021/07/29 09:05:14;;;;;;;5.87;2.98;;;;;;;40.38;25.23;99831.17;1702961;82;21599;-66
2021/07/29 09:07:41;;;;;;;6.05;3.40;;;;;;;40.38;25.54;99837.41;1685206;82;21176;-66
2021/07/29 09:10:24;;;;;;;5.78;2.72;;;;;;;40.43;25.66;99823.95;1704083;82;21127;-66
2021/07/29 09:13:18;;;;;;;8.15;3.98;;;;;;;40.48;26.01;99818.66;1702431;82;21131;-66
2021/07/29 09:15:47;;;;;;;5.58;3.08;;;;;;;40.57;25.66;99817.06;1698600;82;21075;-66
2021/07/29 09:18:17;;;;;;;7.28;3.05;;;;;;;40.71;25.71;99814.09;1697312;82;21090;-63
2021/07/29 09:20:44;;;;;;;5.28;2.70;;;;;;;40.79;25.83;99819.11;1698879;82;21100;-66
2021/07/29 09:23:21;;;;;;;6.62;3.05;;;;;;;41.01;25.57;99819.80;1699372;82;21130;-66
2021/07/29 09:26:00;;;;;;;6.62;3.15;;;;;;;41.02;24.78;99806.30;1701073;82;21102;-66
2021/07/29 09:28:37;;;;;;;7.53;3.00;;;;;;;40.88;25.17;99810.48;1695240;82;21098;-63
2021/07/29 09:31:21;;;;;;;11.85;4.37;;;;;;;40.95;25.62;99813.16;1700937;82;21047;-64
2021/07/29 09:33:58;;;;;;;6.78;3.98;;;;;;;40.84;25.57;99809.70;1699308;84;21096;-66
2021/07/29 09:36:25;;;;;;;8.70;4.30;;;;;;;40.78;25.67;99801.75;1704623;82;21110;-67
2021/07/29 09:38:53;;;;;;;6.75;3.50;;;;;;;40.68;26.13;99801.22;1704644;82;21023;-64
2021/07/29 09:41:25;;;;;;;6.37;3.92;;;;;;;40.59;26.50;99803.80;1634699;84;21074;-65
2021/07/29 09:43:54;;;;;;;6.97;4.05;;;;;;;40.72;27.08;99803.34;1693548;82;20995;-65
2021/07/29 09:46:25;;;;;;;6.97;3.70;;;;;;;40.99;26.71;99796.20;1704992;82;21450;-65
2021/07/29 09:48:52;;;;;;;;;;;;;;;41.11;26.56;99801.78;1703094;82;21099;-64
2021/07/29 09:51:19;;;;;;;7.35;3.85;;;;;;;41.00;26.86;99803.21;1703205;82;20098;-64
2021/07/29 09:53:46;;;;;;;7.55;4.08;;;;;;;40.89;26.73;99795.64;1702074;82;21525;-61
2021/07/29 09:56:13;;;;;;;7.05;3.45;;;;;;;40.85;27.03;99794.89;1698226;83;21104;-65
2021/07/29 09:58:42;;;;;;;12.93;3.85;;;;;;;40.90;26.84;99790.94;1700562;82;21492;-65
2021/07/29 10:01:10;;;;;;;5.28;3.80;;;;;;;40.85;27.05;99794.30;1701298;82;21089;-66
2021/07/29 10:03:45;;;;;;;6.05;3.95;;;;;;;40.88;27.37;99785.89;1694448;83;21041;-64
2021/07/29 10:06:20;;;;;;;7.42;3.90;;;;;;;40.94;27.62;99794.43;1672072;83;20973;-66
2021/07/29 10:08:59;;;;;;;5.55;3.42;;;;;;;41.02;27.76;99789.13;1700578;83;21030;-67
2021/07/29 10:11:28;;;;;;;13.10;4.03;;;;;;;41.23;26.90;99791.72;1700102;82;21174;-65
2021/07/29 10:13:55;;;;;;;9.43;3.05;;;;;;;41.33;26.85;99794.96;1700077;83;21666;-65
2021/07/29 10:16:48;;;;;;;5.78;3.87;;;;;;;41.39;26.70;99791.78;1672735;83;21557;-64
2021/07/29 10:19:16;;;;;;;7.87;3.33;;;;;;;41.37;26.83;99782.63;1701943;82;22459;-63
2021/07/29 10:21:44;;;;;;;7.42;4.42;;;;;;;41.39;27.28;99785.72;1699706;82;21058;-63
2021/07/29 10:24:13;;;;;;;7.40;3.65;;;;;;;41.32;27.49;99778.34;1703167;82;21210;-63
2021/07/29 10:27:02;;;;;;;9.10;3.77;;;;;;;41.29;27.92;99783.25;1698650;82;20990;-63
2021/07/29 10:29:30;;;;;;;9.78;4.70;;;;;;;41.26;27.73;99777.23;1701851;82;21097;-64
2021/07/29 10:32:11;;;;;;;7.67;5.92;;;;;;;41.14;27.71;99770.88;1701099;82;21440;-65
2021/07/29 10:34:38;;;;;;;10.18;8.53;;;;;;;41.18;28.19;99774.38;1702271;82;21065;-63
2021/07/29 10:37:08;;;;;;;13.10;9.40;;;;;;;41.29;27.72;99772.31;1701145;82;21137;-63
2021/07/29 10:39:56;;;;;;;;;;;;;;;41.23;27.12;99771.80;1704217;82;21141;-66
2021/07/29 10:42:28;;;;;;;18.15;10.23;;;;;;;40.69;27.87;99770.78;1698203;82;20138;-65
2021/07/29 10:44:59;;;;;;;9.55;5.92;;;;;;;40.00;28.58;99772.16;1699220;83;21095;-65
2021/07/29 10:47:39;;;;;;;11.50;6.65;;;;;;;39.49;29.55;99771.27;1675544;83;21685;-65
2021/07/29 10:50:09;;;;;;;9.18;6.12;;;;;;;39.26;30.59;99768.36;1696573;82;21153;-64
2021/07/29 10:52:37;;;;;;;12.45;6.47;;;;;;;39.43;30.69;99772.23;1688073;82;21015;-63
2021/07/29 10:55:05;;;;;;;10.30;6.83;;;;;;;39.38;30.40;99767.95;1686076;83;21206;-64
2021/07/29 10:57:32;;;;;;;13.85;8.08;;;;;;;38.98;30.61;99775.88;1667769;84;21093;-64
2021/07/29 11:00:00;;;;;;;10.25;7.20;;;;;;;38.52;31.25;99766.20;1686070;84;20899;-64
2021/07/29 11:02:39;;;;;;;13.32;8.65;;;;;;;38.15;32.40;99763.10;1685932;83;21396;-63
2021/07/29 11:05:08;;;;;;;11.90;6.80;;;;;;;38.14;33.13;99757.47;1689592;82;21576;-64
2021/07/29 11:07:33;;;;;;;17.92;8.00;;;;;;;38.36;31.99;99752.34;1689100;82;21097;-62
2021/07/29 11:10:05;;;;;;;11.80;6.22;;;;;;;38.44;32.57;99746.34;1687359;82;21004;-63
2021/07/29 11:12:35;;;;;;;9.63;6.10;;;;;;;38.39;32.54;99741.28;1688951;82;20986;-64
2021/07/29 11:15:03;;;;;;;10.88;6.15;;;;;;;38.41;33.08;99738.34;1686319;83;21185;-65
2021/07/29 11:17:30;;;;;;;11.97;6.65;;;;;;;38.67;32.31;99744.66;1688191;83;21561;-62
2021/07/29 11:19:56;;;;;;;7.72;5.47;;;;;;;38.78;33.03;99747.41;1685593;84;21458;-64
2021/07/29 11:22:23;;;;;;;9.08;6.05;;;;;;;38.82;32.89;99749.00;1686415;82;21174;-64
2021/07/29 11:24:52;;;;;;;8.18;5.25;;;;;;;38.95;33.37;99743.97;1688017;83;21369;-63
2021/07/29 11:27:32;;;;;;;11.12;6.00;;;;;;;39.29;32.85;99737.59;1669333;82;21160;-63
2021/07/29 11:30:01;;;;;;;12.35;7.25;;;;;;;39.69;31.64;99730.73;1687385;82;21049;-62
2021/07/29 11:32:41;;;;;;;13.35;6.08;;;;;;;39.84;30.38;99730.30;1686996;82;21505;-64